Auburn, AL

3:41 AM CDT on June 27, 2017 (GMT -0500)
Auburn-opelika-pitts

Weather History for KAUO - August, 2014

Change the Weather History Date:

Wednesday, August 20, 2014

  Actual Average Record
Temperature  
Mean Temperature 79 °F -  
Max Temperature 90 °F - 97 °F (1990)
Min Temperature 68 °F - 61 °F (1959)
Cooling Degree Days 14    
Month to date cooling degree days 249  
Year to date cooling degree days 1180  
Since 1 June cooling degree days 964  
Growing Degree Days 28 (Base 50)    
Moisture  
Dew Point 68 °F    
Average Humidity 73    
Maximum Humidity 88    
Minimum Humidity 52    
Precipitation  
Precipitation 0.00 in - 1.25 in (1970)
Month to date precipitation 1.22  
Year to date precipitation 32.39  
Sea Level Pressure  
Sea Level Pressure 30.10 in    
Wind  
Wind Speed 5 mph (WNW)    
Max Wind Speed 9 mph    
Max Gust Speed 20 mph    
Visibility 10 miles    
Events Thunderstorm    
T = Trace of Precipitation, MM = Missing Value Source: NWS Daily Summary

Daily Weather History Graph

Daily Weather History Graph

Search for Another Location

Airport or City:

Trip Planner

Search our weather history database for the weather conditions in past years. The results will help you decide how hot, cold, wet, or windy it might be!

Date:

Astronomy

Aug. 20, 2014 Rise Set
Actual Time 6:08 AM CDT 7:20 PM CDT
Civil Twilight 5:43 AM CDT 7:46 PM CDT
Nautical Twilight 5:12 AM CDT 8:17 PM CDT
Astronomical Twilight 4:40 AM CDT 8:48 PM CDT
Moon 1:53 AM CDT (8/20) 3:59 PM CDT (8/20)
Length of Visible Light 14h 03m
Length of Day
13h 12m
Waning Crescent, 20% of the Moon is Illuminated
Aug 20
Waning Crescent
Aug 25
New
Sep 2
First Quarter
Sep 8
Full
Sep 15
Last Quarter

Hourly Weather History & Observations

Time (CDT) Temp. Heat Index Dew Point Humidity Pressure Visibility Wind Dir Wind Speed Gust Speed Precip Events Conditions
12:15 AM 69.8 °F - 66.2 °F 88% 30.02 in 10.0 mi West 3.5 mph - N/A   Clear
12:35 AM 69.8 °F - 66.2 °F 88% 30.02 in 10.0 mi WSW 4.6 mph - N/A   Clear
12:55 AM 69.8 °F - 66.2 °F 88% 30.01 in 10.0 mi West 5.8 mph - N/A   Clear
1:15 AM 69.8 °F - 66.2 °F 88% 30.01 in 10.0 mi WNW 5.8 mph - N/A   Clear
1:35 AM 69.8 °F - 66.2 °F 88% 30.01 in 10.0 mi West 3.5 mph - N/A   Clear
1:55 AM 69.8 °F - 66.2 °F 88% 30.01 in 10.0 mi WNW 3.5 mph - N/A   Clear
2:15 AM 69.8 °F - 66.2 °F 88% 30.01 in 10.0 mi WNW 4.6 mph - N/A   Clear
2:35 AM 69.8 °F - 66.2 °F 88% 30.00 in 10.0 mi WNW 5.8 mph - N/A   Clear
2:55 AM 69.8 °F - 66.2 °F 88% 30.01 in 10.0 mi WNW 4.6 mph - N/A   Clear
3:15 AM 69.8 °F - 66.2 °F 88% 30.01 in 10.0 mi WNW 5.8 mph - N/A   Clear
3:35 AM 69.8 °F - 66.2 °F 88% 30.02 in 10.0 mi WNW 4.6 mph - N/A   Clear
3:55 AM 69.8 °F - 66.2 °F 88% 30.03 in 10.0 mi West 4.6 mph - N/A   Clear
4:15 AM 69.8 °F - 66.2 °F 88% 30.03 in 10.0 mi WNW 3.5 mph - N/A   Clear
4:35 AM 68.0 °F - 64.4 °F 88% 30.03 in 10.0 mi WNW 4.6 mph - N/A   Clear
4:55 AM 69.8 °F - 64.4 °F 83% 30.04 in 10.0 mi WNW 4.6 mph - N/A   Clear
5:15 AM 69.8 °F - 64.4 °F 83% 30.04 in 10.0 mi West 3.5 mph - N/A   Clear
5:35 AM 69.8 °F - 64.4 °F 83% 30.05 in 10.0 mi Calm Calm - N/A   Clear
5:55 AM 69.8 °F - 64.4 °F 83% 30.06 in 10.0 mi Calm Calm - N/A   Clear
6:15 AM 69.8 °F - 66.2 °F 88% 30.07 in 10.0 mi Calm Calm - N/A   Clear
6:35 AM 69.8 °F - 66.2 °F 88% 30.08 in 10.0 mi Calm Calm - N/A   Clear
6:55 AM 69.8 °F - 66.2 °F 88% 30.09 in 10.0 mi WSW 4.6 mph - N/A   Clear
7:15 AM 69.8 °F - 66.2 °F 88% 30.10 in 9.0 mi WSW 4.6 mph - N/A   Clear
7:35 AM 71.6 °F - 66.2 °F 83% 30.11 in 10.0 mi West 5.8 mph - N/A   Clear
7:55 AM 73.4 °F - 68.0 °F 83% 30.11 in 10.0 mi West 5.8 mph - N/A   Clear
8:15 AM 73.4 °F - 68.0 °F 83% 30.12 in 10.0 mi West 6.9 mph - N/A   Clear
8:35 AM 75.2 °F - 68.0 °F 78% 30.12 in 10.0 mi West 6.9 mph - N/A   Clear
8:55 AM 75.2 °F - 68.0 °F 78% 30.13 in 10.0 mi West 4.6 mph - N/A   Clear
9:15 AM 77.0 °F - 69.8 °F 78% 30.13 in 10.0 mi West 8.1 mph - N/A   Scattered Clouds
9:35 AM 78.8 °F - 68.0 °F 69% 30.13 in 10.0 mi West 8.1 mph - N/A   Partly Cloudy
9:55 AM 80.6 °F 83.9 °F 69.8 °F 70% 30.14 in 10.0 mi WNW 8.1 mph - N/A   Clear
10:15 AM 80.6 °F 83.9 °F 69.8 °F 70% 30.14 in 10.0 mi WNW 8.1 mph - N/A   Clear
10:35 AM 80.6 °F 83.9 °F 69.8 °F 70% 30.14 in 10.0 mi West 6.9 mph - N/A   Clear
10:55 AM 82.4 °F 87.2 °F 71.6 °F 70% 30.14 in 10.0 mi West 8.1 mph - N/A   Clear
11:15 AM 82.4 °F 87.2 °F 71.6 °F 70% 30.13 in 10.0 mi West 6.9 mph - N/A   Clear
11:35 AM 84.2 °F 89.6 °F 71.6 °F 66% 30.13 in 10.0 mi NW 6.9 mph - N/A   Clear
11:55 AM 84.2 °F 89.6 °F 71.6 °F 66% 30.13 in 10.0 mi WNW 5.8 mph - N/A   Clear
12:15 PM 84.2 °F 89.6 °F 71.6 °F 66% 30.13 in 10.0 mi West 6.9 mph - N/A   Partly Cloudy
12:35 PM 84.2 °F 89.6 °F 71.6 °F 66% 30.13 in 10.0 mi West 6.9 mph - N/A   Partly Cloudy
12:55 PM 86.0 °F 91.8 °F 71.6 °F 62% 30.13 in 10.0 mi West 5.8 mph - N/A   Scattered Clouds
1:15 PM 87.8 °F 93.8 °F 71.6 °F 58% 30.12 in 10.0 mi West 6.9 mph - N/A   Scattered Clouds
1:35 PM 86.0 °F 91.8 °F 71.6 °F 62% 30.12 in 10.0 mi West 5.8 mph - N/A   Mostly Cloudy
1:55 PM 87.8 °F 93.8 °F 71.6 °F 58% 30.12 in 10.0 mi West 8.1 mph - N/A   Scattered Clouds
2:15 PM 87.8 °F 93.8 °F 71.6 °F 58% 30.11 in 10.0 mi West 10.4 mph 16.1 mph N/A   Scattered Clouds
2:35 PM 89.6 °F 96.2 °F 71.6 °F 55% 30.11 in 10.0 mi WSW 9.2 mph - N/A   Mostly Cloudy
2:55 PM 89.6 °F 96.2 °F 71.6 °F 55% 30.10 in 10.0 mi West 8.1 mph - N/A Thunderstorm Scattered Clouds
3:15 PM 89.6 °F 96.2 °F 71.6 °F 55% 30.09 in 10.0 mi WNW 10.4 mph - N/A   Clear
3:35 PM 89.6 °F 94.7 °F 69.8 °F 52% 30.09 in 10.0 mi West 10.4 mph - N/A Thunderstorm Thunderstorm
3:55 PM 87.8 °F 93.8 °F 71.6 °F 58% 30.09 in 10.0 mi WSW 11.5 mph - N/A Thunderstorm Thunderstorm
4:15 PM 87.8 °F 92.6 °F 69.8 °F 55% 30.08 in 10.0 mi SW 11.5 mph 17.3 mph N/A   Scattered Clouds
4:35 PM 89.6 °F 94.7 °F 69.8 °F 52% 30.08 in 10.0 mi West 6.9 mph - N/A   Partly Cloudy
4:55 PM 89.6 °F 94.7 °F 69.8 °F 52% 30.10 in 10.0 mi WNW 9.2 mph - N/A   Partly Cloudy
5:15 PM 87.8 °F 92.6 °F 69.8 °F 55% 30.10 in 10.0 mi West 8.1 mph - N/A   Partly Cloudy
5:35 PM 86.0 °F 90.4 °F 69.8 °F 58% 30.09 in 10.0 mi West 8.1 mph - N/A   Partly Cloudy
5:55 PM 82.4 °F 86.3 °F 69.8 °F 66% 30.09 in 10.0 mi WNW 5.8 mph - N/A   Clear
6:15 PM 82.4 °F 87.2 °F 71.6 °F 70% 30.09 in 10.0 mi NNW 10.4 mph - N/A   Clear
6:35 PM 82.4 °F 84.6 °F 66.2 °F 58% 30.09 in 10.0 mi Calm Calm - N/A   Clear
6:55 PM 82.4 °F 84.6 °F 66.2 °F 58% 30.10 in 10.0 mi NE 5.8 mph - N/A   Clear
7:15 PM 80.6 °F 82.7 °F 66.2 °F 61% 30.11 in 10.0 mi East 5.8 mph - N/A   Clear
7:35 PM 78.8 °F - 66.2 °F 65% 30.13 in 10.0 mi East 12.7 mph - N/A   Clear
7:55 PM 78.8 °F - 69.8 °F 74% 30.13 in 10.0 mi East 9.2 mph - N/A   Clear
8:15 PM 78.8 °F - 66.2 °F 65% 30.13 in 10.0 mi ESE 4.6 mph - N/A   Clear
8:35 PM 78.8 °F - 66.2 °F 65% 30.12 in 10.0 mi Calm Calm - N/A   Clear
8:55 PM 77.0 °F - 66.2 °F 69% 30.13 in 10.0 mi Calm Calm - N/A   Clear
9:15 PM 75.2 °F - 68.0 °F 78% 30.13 in 10.0 mi Calm Calm - N/A   Clear
9:35 PM 75.2 °F - 68.0 °F 78% 30.15 in 10.0 mi Calm Calm - N/A   Clear
9:55 PM 75.2 °F - 68.0 °F 78% 30.16 in 10.0 mi Calm Calm - N/A   Clear
10:15 PM 75.2 °F - 68.0 °F 78% 30.16 in 10.0 mi Calm Calm - N/A   Clear
10:35 PM 75.2 °F - 68.0 °F 78% 30.17 in 10.0 mi Calm Calm - N/A   Clear
10:55 PM 75.2 °F - 68.0 °F 78% 30.17 in 10.0 mi Calm Calm - N/A   Clear
11:15 PM 75.2 °F - 68.0 °F 78% 30.17 in 10.0 mi Calm Calm - N/A   Partly Cloudy
11:35 PM 73.4 °F - 68.0 °F 83% 30.18 in 10.0 mi NE 8.1 mph 19.6 mph N/A   Mostly Cloudy
11:55 PM 73.4 °F - 66.2 °F 78% 30.18 in 10.0 mi NE 8.1 mph - N/A   Mostly Cloudy